WXM80 ListenWXM80 Stop

You find our weather info also at:

UK Metoffice

WeatherCloud

Weather Underground

Northeastern Weather Network

AWEKAS

Citizen Weather Observer Program (CWOP)

HAMweather, WeatherForYou, PWS Weather


Weather Underground History page Text

Daily Summary for August 23, 2017 Units:  Metric    English   Both
« Previous Day
Next Day »
Daily Weekly Monthly Yearly Custom
  High: Low: Average:
Temperature: 29.6 °C 19.3 °C 24.6 °C
Dew Point: 23.2 °C 15.3 °C 19.2 °C
Humidity: 97 % 44 % 75 %
Wind Speed: 11.4 km/h 0 km/h 3.1 km/h
Wind Gust: 22.5 km/h - -
Wind:- - West
Pressure: 1009.7 hPa 1005 hPa -
Precipitation: 7.11 mm    
Historical Graphs
 
 
Tabular Data for August 23, 2017
Time Temperature Dew Point Pressure Wind Wind Speed Wind Gust Humidity Rainfall Rate (Hourly)
00:04 25 °C 23.2 °C 1007 hPa SW 7.4 km/h 20.4 km/h 90 % 0 mm
00:09 24.8 °C 23.1 °C 1007 hPa WSW 10.5 km/h 19.3 km/h 90 % 0.51 mm
00:14 24.6 °C 22.8 °C 1007.3 hPa WSW 8.4 km/h 22.5 km/h 90 % 1.27 mm
00:19 24.4 °C 22.7 °C 1007 hPa WSW 8.7 km/h 11.1 km/h 90 % 1.78 mm
00:24 24.3 °C 22.7 °C 1007 hPa SSW 9.7 km/h 16.7 km/h 91 % 2.29 mm
00:29 24.2 °C 22.4 °C 1007 hPa SW 9 km/h 19.3 km/h 90 % 2.79 mm
00:34 23.9 °C 22.4 °C 1006.7 hPa SW 6.6 km/h 14.8 km/h 91 % 2.79 mm
00:39 23.8 °C 22.2 °C 1006.7 hPa SW 11.4 km/h 22.2 km/h 91 % 2.79 mm
00:44 23.6 °C 22.2 °C 1007 hPa South 8.9 km/h 16.7 km/h 92 % 2.79 mm
00:49 23.5 °C 22.1 °C 1007 hPa West 1.9 km/h 13 km/h 92 % 2.79 mm
00:54 23.4 °C 22 °C 1006.7 hPa SW 4.3 km/h 7.4 km/h 92 % 3.3 mm
00:59 23.3 °C 21.9 °C 1006.7 hPa SW 4.3 km/h 14.8 km/h 92 % 3.3 mm
01:04 23.3 °C 22.1 °C 1006.7 hPa SSW 2.4 km/h 8 km/h 93 % 5.08 mm
01:09 23.2 °C 21.9 °C 1006.7 hPa SSW 5 km/h 7.4 km/h 93 % 4.83 mm
01:14 23.1 °C 21.9 °C 1006.7 hPa WSW 5 km/h 8 km/h 93 % 4.83 mm
01:19 23.1 °C 22.1 °C 1006.3 hPa WSW 2.6 km/h 11.1 km/h 94 % 4.32 mm
01:24 23.1 °C 22.1 °C 1006.3 hPa SW 5.1 km/h 9.3 km/h 94 % 4.32 mm
01:29 23 °C 22 °C 1006 hPa SW 0.3 km/h 1.9 km/h 94 % 3.81 mm
01:31 23 °C 22 °C 1006 hPa SSW 3.7 km/h 9.3 km/h 94 % 3.56 mm
01:36 22.9 °C 21.9 °C 1005.6 hPa SW 0.5 km/h 1.9 km/h 94 % 3.3 mm
01:41 22.9 °C 21.9 °C 1005.6 hPa SW 0.3 km/h 3.7 km/h 94 % 3.05 mm
01:46 22.8 °C 21.8 °C 1005.6 hPa WSW 1.4 km/h 5.6 km/h 94 % 3.05 mm
01:51 22.8 °C 21.8 °C 1005.6 hPa Calm     94 % 2.54 mm
01:56 22.8 °C 21.8 °C 1005.6 hPa Calm     94 % 2.29 mm
02:00 22.8 °C 21.8 °C 1005.6 hPa Calm     94 % 1.78 mm
02:05 22.7 °C 21.7 °C 1005.6 hPa Calm   1.9 km/h 94 % 1.27 mm
02:10 22.7 °C 21.7 °C 1005.6 hPa Calm     94 % 1.02 mm
02:15 22.7 °C 21.7 °C 1005.3 hPa WSW 0.3 km/h 1.9 km/h 94 % 0.76 mm
02:20 22.7 °C 21.7 °C 1005.3 hPa SW 3.7 km/h 5.6 km/h 94 % 0.51 mm
02:25 22.7 °C 21.8 °C 1005.3 hPa Calm     95 % 0.25 mm
02:30 22.6 °C 21.8 °C 1005.3 hPa SW 0.3 km/h 1.9 km/h 95 % 0.25 mm
02:35 22.6 °C 21.8 °C 1005 hPa SW 4.7 km/h 9.7 km/h 95 % 0.25 mm
02:40 22.6 °C 21.8 °C 1005 hPa SW 2.9 km/h 11.1 km/h 95 % 0.25 mm
02:45 22.6 °C 21.8 °C 1005.3 hPa SW 3.4 km/h 16.7 km/h 95 % 0 mm
02:48 22.6 °C 21.7 °C 1005.3 hPa WSW 5.5 km/h 11.1 km/h 95 % 0 mm
02:53 22.6 °C 21.7 °C 1005.3 hPa SSW 5.5 km/h 8 km/h 95 % 0 mm
02:58 22.6 °C 21.7 °C 1005.3 hPa SSW 3.1 km/h 7.4 km/h 95 % 0 mm
03:03 22.6 °C 21.8 °C 1005.3 hPa WSW 2.7 km/h 5.6 km/h 95 % 0 mm
03:08 22.6 °C 21.9 °C 1005.3 hPa SW 4.2 km/h 11.1 km/h 96 % 0 mm
03:13 22.6 °C 21.9 °C 1005.3 hPa SSW 0.5 km/h 11.1 km/h 96 % 0 mm
03:18 22.7 °C 22 °C 1005 hPa SW 4.7 km/h 9.3 km/h 96 % 0 mm
03:23 22.7 °C 22 °C 1005 hPa SSW 4.3 km/h 9.7 km/h 96 % 0 mm
03:28 22.7 °C 22 °C 1005 hPa SW 8.5 km/h 13 km/h 96 % 0 mm
03:33 22.7 °C 22 °C 1005 hPa WSW 1 km/h 3.7 km/h 96 % 0 mm
03:38 22.7 °C 22 °C 1005.3 hPa SW 5.1 km/h 5.6 km/h 96 % 0 mm
03:43 22.7 °C 22 °C 1005.3 hPa WSW 6.3 km/h 7.4 km/h 96 % 0 mm
03:48 22.7 °C 22.1 °C 1005 hPa SW 4 km/h 11.1 km/h 96 % 0 mm
03:53 22.7 °C 22.1 °C 1005 hPa WSW 0.8 km/h 6.4 km/h 96 % 0 mm
03:58 22.7 °C 22.1 °C 1005 hPa West 2.4 km/h 5.6 km/h 96 % 0 mm
04:04 22.7 °C 22.1 °C 1005 hPa WSW 4 km/h 11.1 km/h 96 % 0 mm
04:09 22.7 °C 22.1 °C 1005 hPa SW 1.6 km/h 7.4 km/h 96 % 0 mm
04:14 22.7 °C 22.1 °C 1005.3 hPa SSW 1.4 km/h 5.6 km/h 96 % 0 mm
04:19 22.7 °C 22.1 °C 1005.3 hPa SSW 5.3 km/h 5.6 km/h 96 % 0 mm
04:24 22.7 °C 22.1 °C 1005.3 hPa SW 3.7 km/h 5.6 km/h 96 % 0 mm
04:29 22.7 °C 22.1 °C 1005.3 hPa SW 1.9 km/h 5.6 km/h 96 % 0 mm
04:34 22.7 °C 22.1 °C 1005.3 hPa WSW 0.8 km/h 5.6 km/h 96 % 0 mm
04:44 22.7 °C 22.1 °C 1005.3 hPa Calm   1.9 km/h 96 % 0 mm
04:49 22.7 °C 22.1 °C 1005.3 hPa SW 0.2 km/h 1.9 km/h 96 % 0 mm
04:54 22.7 °C 22.1 °C 1005.3 hPa Calm     96 % 0 mm
04:59 22.7 °C 22.1 °C 1005.3 hPa WSW 2.1 km/h 4.8 km/h 96 % 0.25 mm
05:04 22.7 °C 22.1 °C 1005.3 hPa WSW 0.3 km/h 1.9 km/h 96 % 0.25 mm
05:09 22.7 °C 22.1 °C 1005.3 hPa SW 2.7 km/h 9.3 km/h 96 % 0.25 mm
05:14 22.7 °C 22.1 °C 1005.3 hPa SW 2.6 km/h 5.6 km/h 96 % 0.25 mm
05:19 22.7 °C 22.1 °C 1005.3 hPa SSW 1.6 km/h 5.6 km/h 96 % 0.25 mm
05:24 22.7 °C 22.1 °C 1005.3 hPa WSW 1.3 km/h 7.4 km/h 96 % 0.25 mm
05:29 22.7 °C 22.1 °C 1005.3 hPa WSW 0.2 km/h 3.7 km/h 96 % 0.25 mm
05:34 22.7 °C 22.1 °C 1005.3 hPa SW 3.4 km/h 5.6 km/h 96 % 0.25 mm
05:39 22.7 °C 22.1 °C 1005.3 hPa SSW 2.1 km/h 5.6 km/h 96 % 0.25 mm
05:44 22.7 °C 22.1 °C 1005.3 hPa SW 1.8 km/h 3.7 km/h 96 % 0.25 mm
05:49 22.7 °C 22.1 °C 1005.3 hPa WSW 4.7 km/h 5.6 km/h 96 % 0.25 mm
05:55 22.7 °C 22.1 °C 1005.3 hPa WSW 2.3 km/h 5.6 km/h 96 % 0.25 mm
05:59 22.7 °C 22.1 °C 1005.6 hPa Calm   5.6 km/h 96 % 0 mm
06:02 22.7 °C 22.1 °C 1005.6 hPa WSW 2.3 km/h 8 km/h 96 % 0 mm
06:07 22.8 °C 22.1 °C 1005.3 hPa WSW 1.9 km/h 5.6 km/h 96 % 0 mm
06:12 22.7 °C 22.1 °C 1005.3 hPa SW 1.1 km/h 5.6 km/h 96 % 0 mm
06:17 22.8 °C 22.3 °C 1005.6 hPa WSW 2.6 km/h 5.6 km/h 97 % 0 mm
06:22 22.8 °C 22.1 °C 1005.6 hPa West 1.6 km/h 9.3 km/h 96 % 0 mm
06:27 22.8 °C 22.3 °C 1005.6 hPa WSW 0.6 km/h 3.7 km/h 97 % 0 mm
06:32 22.8 °C 22.3 °C 1006 hPa SSW 2.4 km/h 5.6 km/h 97 % 0 mm
06:37 22.8 °C 22.3 °C 1006 hPa SW 4.7 km/h 9.3 km/h 97 % 0 mm
06:42 22.8 °C 22.3 °C 1006 hPa WSW 3.5 km/h 7.4 km/h 97 % 0 mm
06:47 22.8 °C 22.3 °C 1006 hPa WSW 0.5 km/h 5.6 km/h 97 % 0 mm
06:52 22.8 °C 22.3 °C 1006 hPa West 3.4 km/h 7.4 km/h 97 % 0 mm
06:57 22.8 °C 22.3 °C 1006 hPa West 1.8 km/h 5.6 km/h 97 % 0 mm
07:02 22.9 °C 22.4 °C 1006 hPa WSW 1 km/h 5.6 km/h 97 % 0 mm
07:08 22.9 °C 22.4 °C 1006 hPa West 1.9 km/h 8 km/h 97 % 0 mm
07:13 22.9 °C 22.4 °C 1006 hPa SW 0.3 km/h 5.6 km/h 97 % 0 mm
07:18 22.9 °C 22.4 °C 1006 hPa SW 1.1 km/h 4.8 km/h 97 % 0 mm
07:23 23 °C 22.5 °C 1006 hPa WNW 0.8 km/h 1.9 km/h 97 % 0 mm
07:28 23.1 °C 22.6 °C 1006.3 hPa SSW 2.9 km/h 5.6 km/h 97 % 0 mm
07:33 23.1 °C 22.6 °C 1006.3 hPa West 6.1 km/h 13 km/h 97 % 0 mm
07:38 23.1 °C 22.6 °C 1006.3 hPa SW 5 km/h 11.1 km/h 97 % 0 mm
07:41 23.1 °C 22.6 °C 1006.3 hPa SW 0.3 km/h 5.6 km/h 97 % 0 mm
07:46 23.1 °C 22.6 °C 1006.3 hPa SW 2.7 km/h 6.4 km/h 97 % 0 mm
07:51 23.1 °C 22.6 °C 1006.3 hPa WNW 5 km/h 11.1 km/h 97 % 0 mm
07:54 23.1 °C 22.6 °C 1006.7 hPa West 6.3 km/h 13 km/h 97 % 0 mm
07:59 23.1 °C 22.6 °C 1006.7 hPa WSW 3.7 km/h 5.6 km/h 97 % 0 mm
08:04 23.1 °C 22.6 °C 1006.7 hPa WSW 5.5 km/h 13 km/h 97 % 0 mm
08:09 23.1 °C 22.4 °C 1006.7 hPa NW 1.6 km/h 3.7 km/h 96 % 0 mm
08:14 23.1 °C 22.4 °C 1006.7 hPa SW 3.4 km/h 8 km/h 96 % 0 mm
08:19 23.1 °C 22.4 °C 1006.7 hPa SW 6.1 km/h 11.1 km/h 96 % 0 mm
08:24 23.1 °C 22.4 °C 1006.7 hPa WSW 4 km/h 6.4 km/h 96 % 0 mm
08:29 23.1 °C 22.4 °C 1007 hPa WNW 3.4 km/h 9.3 km/h 96 % 0 mm
08:34 23.1 °C 22.3 °C 1006.7 hPa NW 5.5 km/h 11.1 km/h 95 % 0 mm
08:39 23.1 °C 22.2 °C 1006.7 hPa WSW 4.7 km/h 8 km/h 95 % 0 mm
08:44 23.1 °C 22.1 °C 1006.7 hPa NW 2.9 km/h 6.4 km/h 94 % 0 mm
08:49 23.1 °C 22.1 °C 1006.7 hPa WSW 4.3 km/h 8 km/h 94 % 0 mm
08:54 23.1 °C 21.9 °C 1007 hPa WSW 7.1 km/h 9.3 km/h 93 % 0 mm
08:59 23.1 °C 21.9 °C 1007 hPa WSW 5.8 km/h 9.7 km/h 93 % 0 mm
09:04 23.1 °C 21.6 °C 1007 hPa WNW 5.8 km/h 9.3 km/h 91 % 0 mm
09:09 23.1 °C 21.6 °C 1007 hPa WSW 8.2 km/h 12.9 km/h 91 % 0 mm
09:10 23.1 °C 21.6 °C 1007 hPa WSW 8 km/h 13 km/h 91 % 0 mm
09:15 23.1 °C 21.2 °C 1007 hPa SW 2.6 km/h 7.4 km/h 89 % 0 mm
09:20 23.1 °C 20.9 °C 1007 hPa WNW 1.9 km/h 13 km/h 88 % 0 mm
09:25 23.1 °C 20.8 °C 1007.3 hPa WNW 2.3 km/h 7.4 km/h 87 % 0 mm
09:30 23.1 °C 20.8 °C 1007.3 hPa West 3.5 km/h 7.4 km/h 87 % 0 mm
09:35 23.1 °C 20.8 °C 1007.3 hPa WNW 5.8 km/h 11.1 km/h 87 % 0 mm
09:40 23.2 °C 20.9 °C 1007.3 hPa West 3.4 km/h 9.7 km/h 87 % 0 mm
09:45 23.2 °C 20.9 °C 1007.7 hPa WNW 0.8 km/h 7.4 km/h 87 % 0 mm
09:50 23.3 °C 21 °C 1007.7 hPa WNW 2.9 km/h 9.7 km/h 87 % 0 mm
09:55 23.3 °C 21.1 °C 1007.7 hPa West 4.7 km/h 9.7 km/h 87 % 0 mm
10:00 23.4 °C 20.9 °C 1007.7 hPa West 0.3 km/h 5.6 km/h 86 % 0 mm
10:05 23.5 °C 21 °C 1007.7 hPa WSW 1.9 km/h 5.6 km/h 86 % 0 mm
10:10 23.7 °C 21.2 °C 1007.7 hPa West 3.5 km/h 5.6 km/h 86 % 0 mm
10:15 23.8 °C 21.3 °C 1007.7 hPa NW 3.5 km/h 7.4 km/h 86 % 0 mm
10:20 24 °C 21.5 °C 1007.7 hPa NW 1 km/h 4.8 km/h 86 % 0 mm
10:25 24.2 °C 21.3 °C 1008 hPa West 6.6 km/h 9.7 km/h 84 % 0 mm
10:30 24.4 °C 21.3 °C 1008 hPa West 6.4 km/h 9.3 km/h 83 % 0 mm
10:35 24.6 °C 21.5 °C 1008 hPa Calm   8 km/h 83 % 0 mm
10:41 24.8 °C 21.3 °C 1008 hPa West 4.8 km/h 9.7 km/h 81 % 0 mm
10:46 24.9 °C 21.5 °C 1008 hPa West 1.6 km/h 8 km/h 81 % 0 mm
10:51 25.2 °C 21.3 °C 1008 hPa West 4.8 km/h 12.9 km/h 79 % 0 mm
10:55 25.6 °C 21.6 °C 1008 hPa West 3.2 km/h 9.7 km/h 79 % 0 mm
11:00 25.9 °C 22 °C 1008 hPa SW 2.7 km/h 11.1 km/h 79 % 0 mm
11:05 26.3 °C 22.2 °C 1008 hPa West 3.2 km/h 11.3 km/h 78 % 0 mm
11:10 26.8 °C 22.8 °C 1008 hPa West 1.6 km/h 9.7 km/h 79 % 0 mm
11:15 27.2 °C 21.4 °C 1008 hPa WNW 4.8 km/h 14.5 km/h 71 % 0 mm
11:20 27.4 °C 21.5 °C 1008 hPa WSW 8 km/h 12.9 km/h 70 % 0 mm
11:25 27.8 °C 20.6 °C 1008 hPa SW 6.6 km/h 7.4 km/h 65 % 0 mm
11:30 27.9 °C 21.5 °C 1008 hPa West 0.3 km/h 1.9 km/h 68 % 0 mm
11:35 28.2 °C 21 °C 1008 hPa NW 3.2 km/h 9.3 km/h 65 % 0 mm
11:40 28.4 °C 20.4 °C 1008.4 hPa WNW 6.4 km/h 6.4 km/h 62 % 0 mm
11:45 28.4 °C 19.6 °C 1008.4 hPa NW 3.4 km/h 5.6 km/h 59 % 0 mm
11:50 28.3 °C 19.8 °C 1008.4 hPa WNW 2.3 km/h 5.6 km/h 60 % 0 mm
11:55 28.3 °C 19.3 °C 1008 hPa SSW 5.3 km/h 11.1 km/h 58 % 0 mm
12:00 28.3 °C 18.7 °C 1008 hPa NW 1.9 km/h 9.3 km/h 56 % 0 mm
12:05 28.6 °C 19.5 °C 1008 hPa WNW 5.1 km/h 13 km/h 58 % 0 mm
12:11 28.6 °C 18.4 °C 1008 hPa WSW 3.2 km/h 11.3 km/h 54 % 0 mm
12:16 28.8 °C 19.4 °C 1008 hPa West 3.2 km/h 9.7 km/h 57 % 0 mm
12:21 29 °C 19 °C 1008 hPa WNW 4.8 km/h 12.9 km/h 55 % 0 mm
12:26 29.1 °C 18.8 °C 1008 hPa WNW 3.2 km/h 8 km/h 54 % 0 mm
12:31 29.2 °C 19.5 °C 1008 hPa Calm   4.8 km/h 56 % 0 mm
12:36 29.3 °C 18.7 °C 1008 hPa West 3.2 km/h 9.7 km/h 53 % 0 mm
12:41 29.4 °C 18.2 °C 1008 hPa West 8 km/h 16.1 km/h 51 % 0 mm
12:46 29.5 °C 18.6 °C 1008 hPa West 4.8 km/h 16.1 km/h 52 % 0 mm
12:51 29.6 °C 17.4 °C 1008 hPa WNW 8 km/h 11.3 km/h 48 % 0 mm
12:56 29.6 °C 18.3 °C 1008 hPa WNW 1.6 km/h 9.7 km/h 51 % 0 mm
13:01 29.6 °C 17.1 °C 1008 hPa WNW 6.6 km/h 11.1 km/h 47 % 0 mm
13:06 29.6 °C 18.9 °C 1008 hPa WNW 1.9 km/h 9.7 km/h 53 % 0 mm
13:11 29.5 °C 17 °C 1008 hPa WNW 6.8 km/h 14.8 km/h 47 % 0 mm
13:16 29.5 °C 17.7 °C 1008 hPa West 8 km/h 11.3 km/h 49 % 0 mm
13:21 29.4 °C 17.2 °C 1008 hPa WNW 5 km/h 11.3 km/h 48 % 0 mm
13:26 29.3 °C 18.4 °C 1008 hPa WNW 0.8 km/h 3.7 km/h 52 % 0 mm
13:27 29.3 °C 16.8 °C 1008.4 hPa SW 5 km/h 12.9 km/h 47 % 0 mm
13:32 29.3 °C 17.1 °C 1008 hPa NNW 6 km/h 6 km/h 48 % 0 mm
13:37 29.2 °C 17.1 °C 1008.4 hPa NNW 4.7 km/h 13 km/h 48 % 0 mm
13:42 29.2 °C 17.1 °C 1008 hPa WNW 6 km/h 11.3 km/h 48 % 0 mm
13:45 29.2 °C 17.1 °C 1008 hPa West 5.5 km/h 9.3 km/h 48 % 0 mm
13:50 29.1 °C 17.9 °C 1008.4 hPa NW 0.8 km/h 3.2 km/h 51 % 0 mm
13:55 29.1 °C 17 °C 1008.4 hPa WSW 4.8 km/h 11.1 km/h 48 % 0 mm
14:00 29 °C 16.6 °C 1008.4 hPa WSW 1.3 km/h 9.3 km/h 47 % 0 mm
14:05 28.9 °C 16.2 °C 1008 hPa WNW 6.4 km/h 13 km/h 46 % 0 mm
14:10 28.8 °C 16.1 °C 1008 hPa NNW 2.3 km/h 9.3 km/h 46 % 0 mm
14:15 28.8 °C 15.3 °C 1008 hPa NW 9.7 km/h 18.5 km/h 44 % 0 mm
14:20 28.7 °C 16.9 °C 1008 hPa NW 9.2 km/h 14.8 km/h 49 % 0 mm
14:25 28.7 °C 15.9 °C 1008 hPa WSW 7.9 km/h 11.1 km/h 46 % 0 mm
14:30 28.6 °C 16.5 °C 1008 hPa WNW 3.5 km/h 20.4 km/h 48 % 0 mm
14:36 28.6 °C 15.8 °C 1008 hPa WNW 3.1 km/h 9.3 km/h 46 % 0 mm
14:41 28.5 °C 15.4 °C 1008 hPa NW 8.7 km/h 14.8 km/h 45 % 0 mm
14:45 28.4 °C 16.4 °C 1008 hPa NW 6.8 km/h 14.8 km/h 48 % 0 mm
14:51 28.3 °C 15.9 °C 1008 hPa WNW 3.2 km/h 14.5 km/h 47 % 0 mm
14:56 28.2 °C 15.5 °C 1008 hPa WNW 3.5 km/h 9.3 km/h 46 % 0 mm
15:01 28.1 °C 16.1 °C 1008 hPa NW 0.8 km/h 5.6 km/h 48 % 0 mm
15:06 28.1 °C 16 °C 1008 hPa West 8 km/h 11.3 km/h 48 % 0 mm
15:11 28.1 °C 16 °C 1008 hPa WNW 3.7 km/h 13 km/h 48 % 0 mm
15:16 28.1 °C 16.3 °C 1008 hPa SW 9.2 km/h 14.8 km/h 49 % 0 mm
15:21 28.1 °C 16.4 °C 1007.7 hPa WNW 3.7 km/h 9.3 km/h 49 % 0 mm
15:26 28.2 °C 16.8 °C 1008 hPa SW 3.7 km/h 12.9 km/h 50 % 0 mm
15:31 28.2 °C 15.8 °C 1008 hPa NE 4.5 km/h 9.3 km/h 47 % 0 mm
15:36 28.2 °C 16.4 °C 1007.7 hPa WNW 5.1 km/h 11.3 km/h 49 % 0 mm
15:46 28.3 °C 16.2 °C 1007.7 hPa WNW 5.1 km/h 13 km/h 48 % 0 mm
15:51 28.3 °C 16.2 °C 1007.7 hPa WSW 1.9 km/h 11.1 km/h 48 % 0 mm
15:56 28.2 °C 16.2 °C 1007.7 hPa WNW 4.5 km/h 9.3 km/h 48 % 0 mm
16:06 28.2 °C 17.4 °C 1007.7 hPa North 3.7 km/h 13 km/h 52 % 0 mm
16:11 28.1 °C 17 °C 1007.7 hPa NW 5.5 km/h 16.7 km/h 51 % 0 mm
16:16 28.1 °C 16.7 °C 1007.7 hPa NW 3.9 km/h 14.8 km/h 50 % 0 mm
16:21 28.1 °C 16.7 °C 1007.7 hPa WNW 4.7 km/h 5.6 km/h 50 % 0 mm
16:26 28 °C 16.6 °C 1007.7 hPa WNW 4.5 km/h 16.7 km/h 50 % 0 mm
16:31 27.9 °C 17.4 °C 1007.7 hPa WNW 0.6 km/h 7.4 km/h 53 % 0 mm
16:36 27.8 °C 17.1 °C 1007.7 hPa NW 5.6 km/h 7.4 km/h 52 % 0 mm
16:41 27.8 °C 16.4 °C 1007.7 hPa West 4.8 km/h 8 km/h 50 % 0 mm
16:46 27.7 °C 16.6 °C 1007.7 hPa WNW 1.6 km/h 9.7 km/h 51 % 0 mm
16:51 27.6 °C 16.9 °C 1007.7 hPa WNW 2.7 km/h 7.4 km/h 52 % 0 mm
16:57 27.6 °C 15.9 °C 1007.7 hPa West 3.1 km/h 13 km/h 49 % 0 mm
17:02 27.6 °C 15.9 °C 1007.7 hPa West 6.3 km/h 13 km/h 49 % 0 mm
17:07 27.4 °C 15.8 °C 1007.7 hPa WNW 6 km/h 16.7 km/h 49 % 0 mm
17:12 27.3 °C 16 °C 1007.7 hPa NW 0.3 km/h 5.6 km/h 50 % 0 mm
17:17 27.3 °C 16.3 °C 1007.7 hPa WNW 3.1 km/h 11.1 km/h 51 % 0 mm
17:22 27.2 °C 16.2 °C 1007.7 hPa SW 8 km/h 13 km/h 51 % 0 mm
17:27 27.2 °C 15.8 °C 1007.7 hPa WSW 2.9 km/h 11.1 km/h 50 % 0 mm
17:32 27.2 °C 15.8 °C 1007.7 hPa WNW 8.9 km/h 16.7 km/h 50 % 0 mm
17:37 27.1 °C 16.4 °C 1007.7 hPa SW 2.6 km/h 8 km/h 52 % 0 mm
17:42 27.1 °C 16.1 °C 1007.7 hPa WNW 3.5 km/h 11.1 km/h 51 % 0 mm
17:47 27 °C 16 °C 1007.7 hPa WNW 5.1 km/h 9.7 km/h 51 % 0 mm
17:52 26.9 °C 15.9 °C 1008 hPa WNW 2.9 km/h 9.7 km/h 51 % 0 mm
17:57 26.9 °C 16.2 °C 1007.7 hPa WNW 2.3 km/h 5.6 km/h 52 % 0 mm
18:02 26.8 °C 16.1 °C 1008 hPa West 3.4 km/h 11.1 km/h 52 % 0 mm
18:07 26.7 °C 16.1 °C 1008 hPa NW 4.2 km/h 5.6 km/h 52 % 0 mm
18:12 26.6 °C 16.2 °C 1008 hPa Calm   3.7 km/h 53 % 0 mm
18:17 26.5 °C 16.2 °C 1008 hPa NW 0.3 km/h 5.6 km/h 53 % 0 mm
18:22 26.3 °C 16 °C 1008 hPa NW 3.5 km/h 9.7 km/h 53 % 0 mm
18:28 26.2 °C 16.1 °C 1008 hPa NW 1.1 km/h 5.6 km/h 54 % 0 mm
18:33 26.1 °C 16 °C 1007.7 hPa NW 4.2 km/h 9.3 km/h 54 % 0 mm
18:38 25.9 °C 15.9 °C 1008 hPa WNW 4 km/h 5.6 km/h 54 % 0 mm
18:43 25.8 °C 15.5 °C 1008 hPa West 1.6 km/h 5.6 km/h 53 % 0 mm
18:48 25.6 °C 15.9 °C 1008 hPa West 0.3 km/h 5.6 km/h 55 % 0 mm
18:53 25.4 °C 15.4 °C 1008 hPa West 4.5 km/h 9.7 km/h 54 % 0 mm
18:58 25.3 °C 15.3 °C 1008 hPa West 3.5 km/h 7.4 km/h 54 % 0 mm
19:03 25.3 °C 15.6 °C 1008.4 hPa NW 5.5 km/h 7.4 km/h 55 % 0 mm
19:08 25.2 °C 15.8 °C 1008 hPa WNW 3.4 km/h 5.6 km/h 56 % 0 mm
19:13 25.1 °C 15.7 °C 1008.4 hPa WNW 1.4 km/h 5.6 km/h 56 % 0 mm
19:18 24.9 °C 15.6 °C 1008.4 hPa NW 2.9 km/h 7.4 km/h 56 % 0 mm
19:23 24.8 °C 15.7 °C 1008 hPa NW 3.1 km/h 7.4 km/h 57 % 0 mm
19:28 24.7 °C 15.9 °C 1008.4 hPa WNW 2.4 km/h 5.6 km/h 58 % 0 mm
19:33 24.6 °C 15.8 °C 1008.4 hPa NW 0.5 km/h 1.9 km/h 58 % 0 mm
19:38 24.5 °C 15.9 °C 1008.4 hPa NW 0.2 km/h 1.9 km/h 59 % 0 mm
19:43 24.3 °C 15.8 °C 1008.4 hPa Calm   1.9 km/h 59 % 0 mm
19:48 24.3 °C 16 °C 1008.7 hPa WNW 0.5 km/h 1.9 km/h 60 % 0 mm
19:54 24.2 °C 15.9 °C 1008.7 hPa Calm   1.9 km/h 60 % 0 mm
19:59 24 °C 16 °C 1008.7 hPa WNW 0.2 km/h 1.9 km/h 61 % 0 mm
20:04 23.9 °C 15.9 °C 1008.7 hPa Calm   1.9 km/h 61 % 0 mm
20:09 23.8 °C 15.8 °C 1009 hPa Calm     61 % 0 mm
20:14 23.7 °C 16.3 °C 1009 hPa WNW 1.3 km/h 3.7 km/h 63 % 0 mm
20:19 23.6 °C 16.1 °C 1009 hPa WNW 0.6 km/h 1.9 km/h 63 % 0 mm
20:24 23.5 °C 16.3 °C 1009 hPa WNW 1.1 km/h 3.7 km/h 64 % 0 mm
20:29 23.4 °C 16.2 °C 1009 hPa Calm     64 % 0 mm
20:34 23.3 °C 16.3 °C 1009 hPa WNW 1 km/h 1.9 km/h 65 % 0 mm
20:39 23.2 °C 16.2 °C 1009 hPa WNW 1.4 km/h 1.9 km/h 65 % 0 mm
20:44 23.1 °C 16.4 °C 1009 hPa WNW 0.3 km/h 3.7 km/h 66 % 0 mm
20:49 23 °C 16.3 °C 1009 hPa WNW 1 km/h 3.7 km/h 66 % 0 mm
20:54 22.9 °C 16.4 °C 1009.4 hPa Calm   5.6 km/h 67 % 0 mm
20:56 22.9 °C 16.4 °C 1009.4 hPa WNW 0.5 km/h 1.9 km/h 67 % 0 mm
21:01 22.8 °C 16.3 °C 1009.4 hPa WNW 0.3 km/h 1.9 km/h 67 % 0 mm
21:06 22.7 °C 16.5 °C 1009 hPa West 3.5 km/h 5.6 km/h 68 % 0 mm
21:11 22.7 °C 16.2 °C 1009.4 hPa WNW 1.3 km/h 3.2 km/h 67 % 0 mm
21:16 22.6 °C 16.1 °C 1009.4 hPa WNW 0.2 km/h 1.9 km/h 67 % 0 mm
21:21 22.5 °C 16.1 °C 1009.4 hPa West 0.2 km/h 3.7 km/h 67 % 0 mm
21:26 22.5 °C 16.3 °C 1009.4 hPa NW 1.4 km/h 3.2 km/h 68 % 0 mm
21:31 22.4 °C 16 °C 1009.7 hPa WNW 1 km/h 3.7 km/h 67 % 0 mm
21:36 22.4 °C 15.9 °C 1009.4 hPa WNW 0.8 km/h 5.6 km/h 67 % 0 mm
21:41 22.3 °C 15.9 °C 1009.4 hPa West 2.1 km/h 6.4 km/h 67 % 0 mm
21:46 22.3 °C 15.9 °C 1009.4 hPa WNW 1 km/h 1.9 km/h 67 % 0 mm
21:51 22.3 °C 16.1 °C 1009.4 hPa WNW 1.1 km/h 1.9 km/h 68 % 0 mm
21:56 22.2 °C 16.3 °C 1009.4 hPa Calm     69 % 0 mm
22:01 22.2 °C 16.3 °C 1009.4 hPa WNW 0.2 km/h 3.7 km/h 69 % 0 mm
22:06 22.2 °C 16.5 °C 1009 hPa WNW 0.3 km/h 1.9 km/h 70 % 0 mm
22:11 22.2 °C 16.7 °C 1009 hPa Calm   1.9 km/h 71 % 0 mm
22:16 22.1 °C 16.8 °C 1009 hPa Calm   1.9 km/h 72 % 0 mm
22:21 22 °C 16.7 °C 1009.4 hPa Calm   1.9 km/h 72 % 0 mm
22:26 21.9 °C 16.9 °C 1009.4 hPa Calm     73 % 0 mm
22:31 21.8 °C 16.7 °C 1009.4 hPa Calm     73 % 0 mm
22:36 21.7 °C 16.6 °C 1009.4 hPa Calm   1.9 km/h 73 % 0 mm
22:42 21.5 °C 16.7 °C 1009.4 hPa Calm     74 % 0 mm
22:47 21.3 °C 16.5 °C 1009.4 hPa Calm     74 % 0 mm
22:52 21.2 °C 16.6 °C 1009.4 hPa Calm     75 % 0 mm
22:57 21 °C 16.4 °C 1009.4 hPa WNW 0.3 km/h 1.9 km/h 75 % 0 mm
23:02 20.8 °C 16.4 °C 1009.4 hPa Calm     76 % 0 mm
23:07 20.7 °C 16.6 °C 1009.4 hPa Calm     77 % 0 mm
23:12 20.6 °C 16.2 °C 1009.4 hPa WNW 0.3 km/h 1.9 km/h 76 % 0 mm
23:17 20.4 °C 16.2 °C 1009.4 hPa Calm     77 % 0 mm
23:22 20.3 °C 16.3 °C 1009.4 hPa Calm     78 % 0 mm
23:27 20.1 °C 16.3 °C 1009.4 hPa Calm     79 % 0 mm
23:32 20 °C 16.4 °C 1009.4 hPa Calm     80 % 0 mm
23:37 19.8 °C 16.5 °C 1009.4 hPa WNW 0.2 km/h 1.9 km/h 81 % 0 mm
23:42 19.7 °C 16.4 °C 1009.7 hPa Calm     81 % 0 mm
23:47 19.6 °C 16.4 °C 1009.7 hPa Calm     82 % 0 mm
23:52 19.5 °C 16.2 °C 1009.7 hPa Calm     81 % 0 mm
23:57 19.3 °C 16.2 °C 1009.7 hPa Calm     82 % 0 mm
Crab Meadow Weather
Compliments of Weather Underground - 3 mb

Script developed by  Jim McMurry - jmcmurry@mwt.net Adapted for the template by  Wim van der Kuil - Leuven-Template.eu

Recycling: A used aluminum can is recycled and back on the grocery shelf as a new can, in as little as 60 days.